地図

経路データ

SID SEASON NUMBER BASIN SUBBASIN NAME ISO_TIME NATURE LAT LON WMO_WIND WMO_PRES WMO_AGENCY TRACK_TYPE DIST2LAND LANDFALL IFLAG USA_AGENCY USA_ATCF_ID USA_LAT USA_LON USA_RECORD USA_STATUS USA_WIND USA_PRES USA_SSHS USA_R34_NE USA_R34_SE USA_R34_SW USA_R34_NW USA_R50_NE USA_R50_SE USA_R50_SW USA_R50_NW USA_R64_NE USA_R64_SE USA_R64_SW USA_R64_NW USA_POCI USA_ROCI USA_RMW USA_EYE TOKYO_LAT TOKYO_LON TOKYO_GRADE TOKYO_WIND TOKYO_PRES TOKYO_R50_DIR TOKYO_R50_LONG TOKYO_R50_SHORT TOKYO_R30_DIR TOKYO_R30_LONG TOKYO_R30_SHORT TOKYO_LAND CMA_LAT CMA_LON CMA_CAT CMA_WIND CMA_PRES HKO_LAT HKO_LON HKO_CAT HKO_WIND HKO_PRES NEWDELHI_LAT NEWDELHI_LON NEWDELHI_GRADE NEWDELHI_WIND NEWDELHI_PRES NEWDELHI_CI NEWDELHI_DP NEWDELHI_POCI REUNION_LAT REUNION_LON REUNION_TYPE REUNION_WIND REUNION_PRES REUNION_TNUM REUNION_CI REUNION_RMW REUNION_R34_NE REUNION_R34_SE REUNION_R34_SW REUNION_R34_NW REUNION_R50_NE REUNION_R50_SE REUNION_R50_SW REUNION_R50_NW REUNION_R64_NE REUNION_R64_SE REUNION_R64_SW REUNION_R64_NW BOM_LAT BOM_LON BOM_TYPE BOM_WIND BOM_PRES BOM_TNUM BOM_CI BOM_RMW BOM_R34_NE BOM_R34_SE BOM_R34_SW BOM_R34_NW BOM_R50_NE BOM_R50_SE BOM_R50_SW BOM_R50_NW BOM_R64_NE BOM_R64_SE BOM_R64_SW BOM_R64_NW BOM_ROCI BOM_POCI BOM_EYE BOM_POS_METHOD BOM_PRES_METHOD NADI_LAT NADI_LON NADI_CAT NADI_WIND NADI_PRES WELLINGTON_LAT WELLINGTON_LON WELLINGTON_WIND WELLINGTON_PRES DS824_LAT DS824_LON DS824_STAGE DS824_WIND DS824_PRES TD9636_LAT TD9636_LON TD9636_STAGE TD9636_WIND TD9636_PRES TD9635_LAT TD9635_LON TD9635_WIND TD9635_PRES TD9635_ROCI NEUMANN_LAT NEUMANN_LON NEUMANN_CLASS NEUMANN_WIND NEUMANN_PRES MLC_LAT MLC_LON MLC_CLASS MLC_WIND MLC_PRES USA_GUST BOM_GUST BOM_GUST_PER REUNION_GUST REUNION_GUST_PER USA_SEAHGT USA_SEARAD_NE USA_SEARAD_SE USA_SEARAD_SW USA_SEARAD_NW STORM_SPEED STORM_DIR
1910269N16128 1910 44 WP MM NOT_NAMED 1910-09-25 16:00:00 NR 16.0000 127.900 main 443 443 __________O___ -1 16.0000 127.900 7 2 33
1910269N16128 1910 44 WP MM NOT_NAMED 1910-09-25 18:00:00 NR 16.0573 127.938 main 449 449 __________P___ -1 16.0573 127.938 7 2 24
1910269N16128 1910 44 WP MM NOT_NAMED 1910-09-25 21:00:00 NR 16.1529 127.975 main 464 464 __________P___ -1 16.1529 127.975 7 2 3
1910269N16128 1910 44 WP MM NOT_NAMED 1910-09-26 00:00:00 NR 16.2737 127.959 main 470 462 __________P___ -1 16.2737 127.959 7 3 338
1910269N16128 1910 44 WP MM NOT_NAMED 1910-09-26 03:00:00 NR 16.4348 127.858 main 468 459 __________P___ -1 16.4348 127.858 7 4 326
1910269N16128 1910 44 WP MM NOT_NAMED 1910-09-26 04:00:00 NR 16.5000 127.800 main 466 457 __________O___ -1 16.5000 127.800 7 6 316
1910269N16128 1910 44 WP MM NOT_NAMED 1910-09-26 06:00:00 NR 16.6493 127.644 main 457 456 __________P___ -1 16.6493 127.644 7 7 313
1910269N16128 1910 44 WP MM NOT_NAMED 1910-09-26 09:00:00 NR 16.9111 127.335 main 456 456 __________P___ -1 16.9111 127.335 7 8 311
1910269N16128 1910 44 WP MM NOT_NAMED 1910-09-26 12:00:00 NR 17.2013 126.975 main 460 439 __________P___ -1 17.2013 126.975 7 9 311
1910269N16128 1910 44 WP MM NOT_NAMED 1910-09-26 15:00:00 NR 17.5011 126.613 main 439 430 __________P___ -1 17.5011 126.613 7 9 311
1910269N16128 1910 44 WP MM NOT_NAMED 1910-09-26 16:00:00 NR 17.6000 126.500 main 430 413 __________O___ -1 17.6000 126.500 7 8 316
1910269N16128 1910 44 WP MM NOT_NAMED 1910-09-26 18:00:00 NR 17.7883 126.321 main 413 397 __________P___ -1 17.7883 126.321 7 8 319
1910269N16128 1910 44 WP MM NOT_NAMED 1910-09-26 21:00:00 NR 18.0711 126.072 main 401 369 __________P___ -1 18.0711 126.072 7 7 320
1910269N16128 1910 44 WP MM NOT_NAMED 1910-09-27 00:00:00 NR 18.3487 125.832 main 369 348 __________P___ -1 18.3487 125.832 7 7 320
1910269N16128 1910 44 WP MM NOT_NAMED 1910-09-27 03:00:00 NR 18.6149 125.586 main 348 339 __________P___ -1 18.6149 125.586 7 7 318
1910269N16128 1910 44 WP MM NOT_NAMED 1910-09-27 04:00:00 NR 18.7000 125.500 main 339 319 __________O___ -1 18.7000 125.500 7 7 315
1910269N16128 1910 44 WP MM NOT_NAMED 1910-09-27 06:00:00 NR 18.8558 125.334 main 321 302 __________P___ -1 18.8558 125.334 7 7 313
1910269N16128 1910 44 WP MM NOT_NAMED 1910-09-27 09:00:00 NR 19.0769 125.074 main 305 281 __________P___ -1 19.0769 125.074 7 7 310
1910269N16128 1910 44 WP MM NOT_NAMED 1910-09-27 12:00:00 NR 19.2942 124.781 main 281 252 __________P___ -1 19.2942 124.781 7 8 306
1910269N16128 1910 44 WP MM NOT_NAMED 1910-09-27 15:00:00 NR 19.5204 124.432 main 252 249 __________P___ -1 19.5204 124.432 7 8 304
1910269N16128 1910 44 WP MM NOT_NAMED 1910-09-27 16:00:00 NR 19.6000 124.300 main 249 237 __________O___ -1 19.6000 124.300 3 10 305
1910269N16128 1910 44 WP MM NOT_NAMED 1910-09-27 18:00:00 NR 19.8007 124.015 main 237 225 __________P___ -1 19.8007 124.015 3 11 305
1910269N16128 1910 44 WP MM NOT_NAMED 1910-09-27 21:00:00 NR 20.1149 123.531 main 228 227 __________P___ -1 20.1149 123.531 3 11 302
1910269N16128 1910 44 WP MM NOT_NAMED 1910-09-28 00:00:00 NR 20.4090 122.990 main 235 212 __________P___ -1 20.4090 122.990 3 12 297
1910269N16128 1910 44 WP MM NOT_NAMED 1910-09-28 03:00:00 NR 20.6425 122.403 main 212 190 __________P___ -1 20.6425 122.403 3 12 291
1910269N16128 1910 44 WP MM NOT_NAMED 1910-09-28 04:00:00 NR 20.7000 122.200 main 190 154 __________O___ -1 20.7000 122.200 4 12 284
1910269N16128 1910 44 WP MM NOT_NAMED 1910-09-28 06:00:00 NR 20.7891 121.787 main 154 113 __________P___ -1 20.7891 121.787 4 12 279
1910269N16128 1910 44 WP MM NOT_NAMED 1910-09-28 09:00:00 NR 20.8540 121.136 main 113 111 __________P___ -1 20.8540 121.136 4 12 272
1910269N16128 1910 44 WP MM NOT_NAMED 1910-09-28 12:00:00 NR 20.8389 120.470 main 124 126 __________P___ -1 20.8389 120.470 4 12 265
1910269N16128 1910 44 WP MM NOT_NAMED 1910-09-28 15:00:00 NR 20.7471 119.813 main 163 163 __________P___ -1 20.7471 119.813 4 12 260
1910269N16128 1910 44 WP MM NOT_NAMED 1910-09-28 16:00:00 NR 20.7000 119.600 main 176 176 __________O___ -1 20.7000 119.600 4 12 254
1910269N16128 1910 44 WP MM NOT_NAMED 1910-09-28 18:00:00 NR 20.5770 119.183 main 212 220 __________P___ -1 20.5770 119.183 4 12 249
1910269N16128 1910 44 WP MM NOT_NAMED 1910-09-28 21:00:00 NR 20.3295 118.576 main 281 289 __________P___ -1 20.3295 118.576 4 12 244
1910269N16128 1910 44 WP MM NOT_NAMED 1910-09-29 00:00:00 NR 20.0478 118.001 main 326 326 __________P___ -1 20.0478 118.001 4 12 242
1910269N16128 1910 44 WP MM NOT_NAMED 1910-09-29 03:00:00 NR 19.7788 117.467 main 361 358 __________P___ -1 19.7788 117.467 4 11 242
1910269N16128 1910 44 WP MM NOT_NAMED 1910-09-29 04:00:00 NR 19.7000 117.300 main 367 364 __________O___ -1 19.7000 117.300 4 10 247
1910269N16128 1910 44 WP MM NOT_NAMED 1910-09-29 06:00:00 NR 19.5874 116.986 main 368 364 __________P___ -1 19.5874 116.986 4 9 251
1910269N16128 1910 44 WP MM NOT_NAMED 1910-09-29 09:00:00 NR 19.4506 116.552 main 367 371 __________P___ -1 19.4506 116.552 4 8 253
1910269N16128 1910 44 WP MM NOT_NAMED 1910-09-29 12:00:00 NR 19.3385 116.143 main 378 369 __________P___ -1 19.3385 116.143 4 8 254
1910269N16128 1910 44 WP MM NOT_NAMED 1910-09-29 15:00:00 NR 19.2352 115.738 main 375 372 __________P___ -1 19.2352 115.738 4 8 255
1910269N16128 1910 44 WP MM NOT_NAMED 1910-09-29 16:00:00 NR 19.2000 115.600 main 372 365 __________O___ -1 19.2000 115.600 4 9 254
1910269N16128 1910 44 WP MM NOT_NAMED 1910-09-29 18:00:00 NR 19.1115 115.290 main 372 367 __________P___ -1 19.1115 115.290 4 9 253
1910269N16128 1910 44 WP MM NOT_NAMED 1910-09-29 21:00:00 NR 18.9787 114.818 main 372 365 __________P___ -1 18.9787 114.818 4 9 254
1910269N16128 1910 44 WP MM NOT_NAMED 1910-09-30 00:00:00 NR 18.8511 114.358 main 365 320 __________P___ -1 18.8511 114.358 4 9 254
1910269N16128 1910 44 WP MM NOT_NAMED 1910-09-30 03:00:00 NR 18.7350 113.931 main 320 310 __________P___ -1 18.7350 113.931 4 8 254
1910269N16128 1910 44 WP MM NOT_NAMED 1910-09-30 04:00:00 NR 18.7000 113.800 main 310 291 __________O___ -1 18.7000 113.800 4 7 254
1910269N16128 1910 44 WP MM NOT_NAMED 1910-09-30 06:00:00 NR 18.6381 113.574 main 295 266 __________P___ -1 18.6381 113.574 4 6 254
1910269N16128 1910 44 WP MM NOT_NAMED 1910-09-30 09:00:00 NR 18.5582 113.273 main 266 243 __________P___ -1 18.5582 113.273 4 6 255
1910269N16128 1910 44 WP MM NOT_NAMED 1910-09-30 12:00:00 NR 18.4884 112.992 main 243 223 __________P___ -1 18.4884 112.992 4 6 256
1910269N16128 1910 44 WP MM NOT_NAMED 1910-09-30 15:00:00 NR 18.4223 112.703 main 223 215 __________P___ -1 18.4223 112.703 4 6 257
1910269N16128 1910 44 WP MM NOT_NAMED 1910-09-30 16:00:00 NR 18.4000 112.600 main 215 199 __________O___ -1 18.4000 112.600 4 6 257
1910269N16128 1910 44 WP MM NOT_NAMED 1910-09-30 18:00:00 NR 18.3539 112.380 main 199 167 __________P___ -1 18.3539 112.380 4 7 258
1910269N16128 1910 44 WP MM NOT_NAMED 1910-09-30 21:00:00 NR 18.2811 112.021 main 167 134 __________P___ -1 18.2811 112.021 4 7 258
1910269N16128 1910 44 WP MM NOT_NAMED 1910-10-01 00:00:00 NR 18.2050 111.635 main 134 107 __________P___ -1 18.2050 111.635 4 8 258
1910269N16128 1910 44 WP MM NOT_NAMED 1910-10-01 03:00:00 NR 18.1265 111.235 main 107 99 __________P___ -1 18.1265 111.235 4 8 258
1910269N16128 1910 44 WP MM NOT_NAMED 1910-10-01 04:00:00 NR 18.1000 111.100 main 99 __________O___ -1 18.1000 111.100 4 8 258

デジタル台風データ・検索

IBTrACS Databaseについて

本データベースは、米国NOAAが公開する1842年以降の世界の熱帯低気圧のベストトラックデータアーカイブInternational Best Track Archive for Climate Stewardship (IBTrACS)を、ウェブで閲覧しやすい形式に変換したものです。

最終更新日:2021-10-21